In Rescue
 
Open Full Screen Window  High Contrast Mode
Wind Gusting 00 knots
04
January 28, 2020 11:29 PM PST
Weather Information
Wind Direction
  060 °
Wind Speed
  04 kt (5 mph)
Wind Gust
  00 kt (0 mph)
Altimeter
30.05 in
Visibility
10 SM
Temperature
10° C
50° F
Dewpoint
00° C
32° F
Humidity
50%
1hr Rain Fall
00.00 in.
24hr Rain Fall
00.00 in.
Sky Condition
Clear
VFR

METAR KSBD 290729Z AUTO 06004KT 10SM CLR 10/00 A3005 RMK AO2 T00991003

FAA Disclaimer: The data displayed is for advisory purposes only and is not to be used for flight planning or operations.